Time;durP1;ratioP1;P1;durP2;ratioP2;P2;SDS_P1;SDS_P2;PMS_P1;PMS_P2;Temp;Humidity;BMP_temperature;BMP_pressure;BME280_temperature;BME280_humidity;BME280_pressure;Samples;Min_cycle;Max_cycle;Signal;HPM_P1;HPM_P2
2022/07/07 00:01:54;;;;;;;4.93;2.67;;;16.50;30.20;;;;;;5033340;28;46423;-60
2022/07/07 00:04:20;;;;;;;5.13;2.63;;;16.30;30.60;;;;;;5028325;28;45795;-61
2022/07/07 00:06:46;;;;;;;5.87;2.80;;;16.30;30.60;;;;;;5031278;28;46412;-60
2022/07/07 00:09:11;;;;;;;7.23;2.93;;;16.30;30.60;;;;;;5027538;28;46446;-61
2022/07/07 00:11:37;;;;;;;6.47;2.97;;;16.20;30.50;;;;;;5037721;28;46287;-60
2022/07/07 00:14:07;;;;;;;7.23;3.03;;;16.20;30.50;;;;;;5033681;28;46489;-60
2022/07/07 00:16:33;;;;;;;6.57;3.23;;;16.10;30.40;;;;;;5034204;28;46621;-60
2022/07/07 00:19:01;;;;;;;4.27;3.13;;;16.10;30.40;;;;;;5032644;28;46261;-60
2022/07/07 00:21:27;;;;;;;25.73;3.20;;;16.00;30.30;;;;;;5031426;28;46735;-60
2022/07/07 00:23:52;;;;;;;6.10;3.03;;;16.00;30.30;;;;;;5036329;28;46018;-60
2022/07/07 00:26:18;;;;;;;9.27;3.03;;;15.90;30.50;;;;;;5031124;28;46047;-61
2022/07/07 00:28:44;;;;;;;8.53;2.77;;;15.90;31.90;;;;;;5033170;28;46370;-60
2022/07/07 00:31:09;;;;;;;9.00;3.10;;;15.90;30.80;;;;;;5033548;28;46393;-60
2022/07/07 00:33:35;;;;;;;7.27;3.23;;;15.90;31.00;;;;;;5037817;28;45898;-60
2022/07/07 00:36:01;;;;;;;7.30;3.50;;;15.80;31.20;;;;;;5033765;28;47404;-60
2022/07/07 00:38:26;;;;;;;6.37;3.10;;;15.70;31.30;;;;;;5035120;28;46346;-61
2022/07/07 00:40:53;;;;;;;11.67;3.27;;;15.60;31.60;;;;;;5034058;28;45986;-61
2022/07/07 00:43:19;;;;;;;4.40;3.07;;;15.60;31.80;;;;;;5034256;28;46484;-60
2022/07/07 00:45:50;;;;;;;6.60;3.60;;;15.60;31.90;;;;;;5036540;28;47564;-61
2022/07/07 00:48:18;;;;;;;9.13;3.10;;;15.50;31.80;;;;;;5030695;28;46429;-60
2022/07/07 00:50:45;;;;;;;10.10;2.80;;;15.60;32.00;;;;;;5033355;28;46375;-61
2022/07/07 00:53:11;;;;;;;8.97;3.73;;;15.50;31.90;;;;;;5032450;28;46532;-60
2022/07/07 00:55:38;;;;;;;5.90;3.70;;;15.50;31.80;;;;;;5032518;28;46483;-60
2022/07/07 00:58:04;;;;;;;5.90;3.07;;;15.50;32.00;;;;;;5033481;28;46400;-60
2022/07/07 01:00:30;;;;;;;5.23;3.00;;;15.50;33.30;;;;;;5028887;28;46388;-61
2022/07/07 01:02:56;;;;;;;4.40;3.07;;;15.40;32.30;;;;;;5033493;28;46409;-60
2022/07/07 01:05:23;;;;;;;4.40;2.63;;;15.40;32.60;;;;;;5029888;28;45931;-60
2022/07/07 01:07:51;;;;;;;7.80;2.80;;;15.30;32.90;;;;;;5033884;28;46457;-60
2022/07/07 01:10:17;;;;;;;6.47;3.10;;;15.10;33.00;;;;;;5031846;28;46349;-60
2022/07/07 01:12:43;;;;;;;12.20;3.17;;;15.00;33.20;;;;;;5034155;28;46453;-60
2022/07/07 01:15:12;;;;;;;5.23;3.40;;;14.90;33.40;;;;;;5033632;28;46351;-60
2022/07/07 01:17:39;;;;;;;6.83;3.63;;;14.80;33.60;;;;;;5031999;28;46394;-60
2022/07/07 01:20:08;;;;;;;5.30;3.10;;;14.80;33.80;;;;;;5035231;28;46393;-59
2022/07/07 01:22:35;;;;;;;5.23;2.73;;;14.80;33.80;;;;;;5029265;28;46565;-59
2022/07/07 01:25:01;;;;;;;4.60;2.97;;;14.80;33.80;;;;;;5033226;28;46453;-59
2022/07/07 01:27:27;;;;;;;5.10;3.10;;;14.80;33.60;;;;;;5032598;28;46525;-59
2022/07/07 01:29:54;;;;;;;5.07;2.90;;;14.80;33.40;;;;;;5033899;28;46346;-60
2022/07/07 01:32:24;;;;;;;6.30;3.17;;;14.80;33.40;;;;;;5031916;28;46549;-59
2022/07/07 01:34:51;;;;;;;4.83;2.80;;;14.80;33.50;;;;;;5032241;28;47042;-60
2022/07/07 01:37:18;;;;;;;6.80;2.97;;;14.80;33.50;;;;;;5032889;28;45846;-60
2022/07/07 01:39:44;;;;;;;5.33;3.53;;;14.80;33.50;;;;;;5032067;28;46388;-59
2022/07/07 01:42:11;;;;;;;6.50;3.47;;;14.70;33.50;;;;;;5031452;28;45916;-60
2022/07/07 01:44:38;;;;;;;8.70;3.13;;;14.80;33.70;;;;;;5029558;28;46562;-59
2022/07/07 01:47:05;;;;;;;4.97;3.50;;;14.70;33.80;;;;;;5031774;28;46549;-60
2022/07/07 01:49:32;;;;;;;5.33;2.60;;;14.70;33.80;;;;;;5031920;28;46435;-59
2022/07/07 01:51:59;;;;;;;6.70;3.60;;;14.70;33.90;;;;;;5033197;28;46617;-60
2022/07/07 01:54:29;;;;;;;5.87;3.40;;;14.80;34.10;;;;;;5029880;28;48348;-61
2022/07/07 01:56:55;;;;;;;6.63;3.20;;;14.80;34.20;;;;;;5030940;28;46628;-60
2022/07/07 01:59:20;;;;;;;5.83;2.90;;;14.70;34.20;;;;;;5029169;28;46340;-60
2022/07/07 02:01:46;;;;;;;11.67;3.37;;;14.70;34.50;;;;;;5032375;28;46669;-60
2022/07/07 02:04:12;;;;;;;4.90;2.93;;;14.70;34.60;;;;;;5031308;28;46295;-59
2022/07/07 02:06:38;;;;;;;7.20;3.23;;;14.70;34.70;;;;;;5030544;28;46431;-59
2022/07/07 02:09:04;;;;;;;5.77;3.60;;;14.70;34.80;;;;;;5030300;28;46475;-61
2022/07/07 02:11:30;;;;;;;7.60;3.00;;;14.70;34.70;;;;;;5036612;28;46504;-59
2022/07/07 02:13:55;;;;;;;6.53;2.97;;;14.70;34.70;;;;;;5033700;28;46366;-59
2022/07/07 02:16:23;;;;;;;7.07;3.63;;;14.70;34.80;;;;;;5029627;28;46422;-60
2022/07/07 02:18:53;;;;;;;4.60;3.10;;;14.60;35.00;;;;;;5027401;28;46459;-60
2022/07/07 02:21:20;;;;;;;5.97;3.40;;;14.60;35.20;;;;;;5026932;28;45899;-59
2022/07/07 02:23:47;;;;;;;13.63;3.50;;;14.50;35.30;;;;;;5029654;28;47030;-60
2022/07/07 02:26:13;;;;;;;6.47;3.30;;;14.60;35.50;;;;;;5032692;28;45775;-59
2022/07/07 02:28:40;;;;;;;5.33;3.20;;;14.50;35.40;;;;;;5027813;28;45898;-60
2022/07/07 02:31:06;;;;;;;7.57;3.40;;;14.40;35.50;;;;;;5029735;28;46429;-60
2022/07/07 02:33:32;;;;;;;6.10;3.13;;;14.40;35.60;;;;;;5028712;28;46484;-59
2022/07/07 02:35:57;;;;;;;5.73;3.23;;;14.40;35.70;;;;;;5030617;28;46419;-60
2022/07/07 02:38:24;;;;;;;6.57;3.67;;;14.40;35.90;;;;;;5028273;28;45930;-59
2022/07/07 02:40:50;;;;;;;18.57;3.70;;;14.40;36.10;;;;;;5029773;28;46534;-59
2022/07/07 02:43:16;;;;;;;5.60;3.60;;;14.40;36.20;;;;;;5029149;28;47964;-59
2022/07/07 02:45:44;;;;;;;7.10;3.90;;;14.40;36.30;;;;;;5034311;28;46509;-59
2022/07/07 02:48:11;;;;;;;6.93;3.70;;;14.40;36.50;;;;;;5030665;28;45870;-58
2022/07/07 02:50:38;;;;;;;6.80;3.17;;;14.50;36.60;;;;;;5025726;28;45975;-59
2022/07/07 02:53:05;;;;;;;7.77;3.63;;;14.50;36.70;;;;;;5032600;28;48166;-58
2022/07/07 02:55:31;;;;;;;8.30;3.43;;;14.50;36.60;;;;;;5025511;28;46483;-61
2022/07/07 02:57:58;;;;;;;7.03;3.93;;;14.50;36.60;;;;;;5029858;28;45886;-60
2022/07/07 03:00:24;;;;;;;6.70;3.43;;;14.60;36.70;;;;;;5033123;28;46311;-60
2022/07/07 03:02:51;;;;;;;6.43;3.80;;;14.60;36.80;;;;;;5032274;28;46761;-61
2022/07/07 03:05:16;;;;;;;5.03;3.40;;;14.60;36.90;;;;;;5034427;28;46444;-60
2022/07/07 03:07:42;;;;;;;5.83;3.57;;;14.60;36.60;;;;;;5035492;28;46480;-60
2022/07/07 03:10:08;;;;;;;6.63;3.83;;;14.60;36.70;;;;;;5028902;28;46445;-60
2022/07/07 03:12:34;;;;;;;6.60;3.80;;;14.60;36.80;;;;;;5032167;28;48055;-61
2022/07/07 03:15:00;;;;;;;8.83;3.50;;;14.70;36.80;;;;;;5030817;28;46412;-60
2022/07/07 03:17:25;;;;;;;6.87;4.10;;;14.60;36.80;;;;;;5031183;28;46430;-60
2022/07/07 03:19:51;;;;;;;8.13;3.80;;;14.70;36.90;;;;;;5030733;28;46651;-60
2022/07/07 03:22:17;;;;;;;8.23;4.40;;;14.60;36.90;;;;;;5027278;28;47290;-60
2022/07/07 03:24:43;;;;;;;9.60;3.90;;;14.60;37.10;;;;;;5031273;28;46591;-60
2022/07/07 03:27:09;;;;;;;6.70;3.70;;;14.70;37.20;;;;;;5028359;28;46344;-60
2022/07/07 03:29:34;;;;;;;5.90;3.40;;;14.70;37.30;;;;;;5025264;28;46468;-61
2022/07/07 03:32:00;;;;;;;5.70;4.00;;;14.70;37.20;;;;;;5031546;28;46584;-60
2022/07/07 03:34:26;;;;;;;6.30;3.70;;;14.70;37.20;;;;;;5033160;28;46394;-60
2022/07/07 03:36:52;;;;;;;17.57;4.33;;;14.70;37.30;;;;;;5031114;28;46405;-60
2022/07/07 03:39:17;;;;;;;13.90;4.07;;;14.70;37.30;;;;;;5031884;28;46378;-61
2022/07/07 03:41:43;;;;;;;4.80;3.30;;;14.70;37.20;;;;;;5029119;28;46443;-60
2022/07/07 03:44:09;;;;;;;5.80;3.70;;;14.70;37.30;;;;;;5029767;28;46449;-61
2022/07/07 03:46:34;;;;;;;7.40;3.57;;;14.80;37.30;;;;;;5033806;28;46390;-60
2022/07/07 03:49:00;;;;;;;14.53;3.73;;;14.80;37.30;;;;;;5031607;28;46423;-60
2022/07/07 03:51:26;;;;;;;7.73;3.53;;;14.80;37.30;;;;;;5032318;28;46268;-60
2022/07/07 03:53:51;;;;;;;8.77;3.03;;;14.80;37.40;;;;;;5028353;28;45858;-61
2022/07/07 03:56:17;;;;;;;10.40;3.33;;;14.90;37.50;;;;;;5029326;28;46457;-60
2022/07/07 03:58:43;;;;;;;6.13;3.30;;;14.80;37.40;;;;;;5029020;28;46572;-60
2022/07/07 04:01:08;;;;;;;11.80;3.80;;;14.90;37.60;;;;;;5030592;28;47069;-60
2022/07/07 04:03:34;;;;;;;4.30;3.10;;;14.90;37.50;;;;;;5029650;28;46385;-59
2022/07/07 04:06:00;;;;;;;9.03;3.40;;;14.90;37.50;;;;;;5033498;28;47187;-60
2022/07/07 04:08:25;;;;;;;6.03;4.00;;;14.90;37.50;;;;;;5029104;28;47359;-60
2022/07/07 04:10:51;;;;;;;7.23;3.70;;;14.90;37.60;;;;;;5032009;28;46338;-60
2022/07/07 04:13:17;;;;;;;9.03;3.83;;;14.90;37.50;;;;;;5029345;28;45874;-60
2022/07/07 04:15:43;;;;;;;8.87;3.63;;;15.00;37.60;;;;;;5030633;28;46359;-59
2022/07/07 04:18:08;;;;;;;9.70;4.30;;;15.00;37.60;;;;;;5032348;28;46578;-60
2022/07/07 04:20:34;;;;;;;8.50;3.50;;;15.00;37.70;;;;;;5028668;28;46443;-60
2022/07/07 04:22:59;;;;;;;5.23;3.77;;;15.00;37.50;;;;;;5031284;28;45902;-60
2022/07/07 04:25:25;;;;;;;6.77;3.40;;;15.10;37.50;;;;;;5030118;28;46387;-60
2022/07/07 04:27:51;;;;;;;8.47;3.57;;;15.20;37.50;;;;;;5030813;28;46373;-60
2022/07/07 04:30:17;;;;;;;7.50;3.87;;;15.30;37.40;;;;;;5031782;28;46954;-60
2022/07/07 04:32:42;;;;;;;6.60;3.13;;;15.30;37.20;;;;;;5030042;28;46371;-60
2022/07/07 04:35:09;;;;;;;8.07;3.70;;;15.40;37.20;;;;;;5028898;28;46393;-60
2022/07/07 04:37:35;;;;;;;6.07;3.60;;;15.40;37.00;;;;;;5027651;28;46405;-61
2022/07/07 04:40:03;;;;;;;4.07;3.03;;;15.50;36.90;;;;;;5027725;28;46698;-60
2022/07/07 04:42:29;;;;;;;7.20;3.13;;;15.50;36.80;;;;;;5033811;28;46458;-61
2022/07/07 04:44:54;;;;;;;6.00;3.20;;;15.50;36.90;;;;;;5030090;28;46482;-59
2022/07/07 04:47:20;;;;;;;7.40;3.07;;;15.50;37.00;;;;;;5030731;28;46721;-59
2022/07/07 04:49:46;;;;;;;6.93;3.40;;;15.60;37.10;;;;;;5035641;28;47091;-60
2022/07/07 04:52:11;;;;;;;11.00;3.60;;;15.60;37.00;;;;;;5027460;28;46351;-59
2022/07/07 04:54:37;;;;;;;14.60;3.27;;;15.70;37.00;;;;;;5031642;28;46451;-60
2022/07/07 04:57:03;;;;;;;5.10;3.00;;;15.70;36.80;;;;;;5028209;28;46350;-60
2022/07/07 04:59:28;;;;;;;6.30;3.43;;;15.80;36.70;;;;;;5035976;28;46362;-60
2022/07/07 05:01:54;;;;;;;6.00;3.40;;;15.90;36.50;;;;;;5030331;28;46514;-59
2022/07/07 05:04:19;;;;;;;5.93;2.90;;;16.00;36.40;;;;;;5031628;28;46480;-60
2022/07/07 05:06:45;;;;;;;7.77;3.50;;;16.10;36.10;;;;;;5032696;28;46342;-59
2022/07/07 05:09:10;;;;;;;7.30;2.90;;;16.10;35.70;;;;;;5033222;28;46131;-60
2022/07/07 05:11:36;;;;;;;6.63;2.93;;;16.20;35.40;;;;;;5034770;28;46221;-60
2022/07/07 05:14:02;;;;;;;8.73;2.90;;;16.30;35.50;;;;;;5029605;28;46746;-59
2022/07/07 05:16:31;;;;;;;6.70;3.03;;;16.30;35.40;;;;;;5032542;28;46471;-60
2022/07/07 05:18:56;;;;;;;6.03;3.20;;;16.40;35.20;;;;;;5027635;28;46599;-61
2022/07/07 05:21:22;;;;;;;12.47;2.80;;;16.50;35.00;;;;;;5031999;28;47291;-60
2022/07/07 05:23:48;;;;;;;6.20;3.50;;;16.60;34.90;;;;;;5028224;28;46370;-60
2022/07/07 05:26:14;;;;;;;6.40;3.03;;;16.70;34.60;;;;;;5030727;28;46378;-60
2022/07/07 05:28:41;;;;;;;6.80;3.23;;;16.80;34.30;;;;;;5036063;28;46661;-61
2022/07/07 05:31:10;;;;;;;5.60;2.33;;;17.00;34.10;;;;;;5034561;28;46474;-61
2022/07/07 05:33:36;;;;;;;8.70;3.00;;;17.00;33.80;;;;;;5032328;28;46837;-60
2022/07/07 05:36:02;;;;;;;6.40;2.50;;;17.00;33.70;;;;;;5033434;28;46297;-60
2022/07/07 05:38:28;;;;;;;5.30;2.67;;;17.10;33.50;;;;;;5030299;28;46984;-61
2022/07/07 05:40:53;;;;;;;12.90;2.97;;;17.10;33.40;;;;;;5034258;28;46437;-60
2022/07/07 05:43:19;;;;;;;7.30;2.90;;;17.20;33.20;;;;;;5026293;28;45866;-61
2022/07/07 05:45:44;;;;;;;6.60;3.07;;;17.30;33.30;;;;;;5047402;28;46875;-61
2022/07/07 05:48:10;;;;;;;4.33;2.40;;;17.30;33.00;;;;;;5032355;28;47897;-59
2022/07/07 05:50:36;;;;;;;6.90;2.90;;;17.30;32.90;;;;;;5028516;28;46504;-60
2022/07/07 05:53:01;;;;;;;11.83;2.77;;;17.30;32.90;;;;;;5031516;28;46408;-60
2022/07/07 05:55:27;;;;;;;7.53;2.60;;;17.20;32.60;;;;;;5026912;28;46528;-60
2022/07/07 05:57:52;;;;;;;5.80;2.47;;;17.20;32.50;;;;;;5032182;28;47878;-60
2022/07/07 06:00:18;;;;;;;10.37;2.53;;;17.30;32.30;;;;;;5033425;28;46447;-60
2022/07/07 06:02:44;;;;;;;8.47;2.80;;;17.40;31.70;;;;;;5032403;28;46398;-60
2022/07/07 06:05:09;;;;;;;14.03;3.33;;;17.50;31.80;;;;;;5030757;28;46492;-61
2022/07/07 06:07:35;;;;;;;10.03;2.80;;;17.60;31.80;;;;;;5036416;28;47438;-60
2022/07/07 06:10:01;;;;;;;7.03;2.57;;;17.70;31.90;;;;;;5032279;28;45859;-60
2022/07/07 06:12:26;;;;;;;7.33;2.73;;;17.70;31.80;;;;;;5034582;28;46422;-60
2022/07/07 06:14:52;;;;;;;5.60;2.50;;;17.80;31.80;;;;;;5031076;28;46113;-60
2022/07/07 06:17:17;;;;;;;6.40;2.90;;;17.80;31.50;;;;;;5032437;28;48314;-60
2022/07/07 06:19:43;;;;;;;6.20;2.80;;;17.80;31.50;;;;;;5034395;28;46446;-60
2022/07/07 06:22:09;;;;;;;8.67;2.63;;;17.90;31.10;;;;;;5032254;28;46421;-60
2022/07/07 06:24:34;;;;;;;7.67;2.40;;;18.00;31.10;;;;;;5031553;28;46065;-59
2022/07/07 06:27:00;;;;;;;7.33;2.60;;;18.10;30.80;;;;;;5028496;28;47231;-61
2022/07/07 06:29:26;;;;;;;6.53;2.63;;;18.10;30.70;;;;;;5029883;28;46465;-60
2022/07/07 06:31:51;;;;;;;6.70;2.50;;;18.20;30.50;;;;;;5030622;28;46458;-59
2022/07/07 06:34:17;;;;;;;11.93;2.80;;;18.30;30.40;;;;;;5032639;28;46731;-60
2022/07/07 06:36:43;;;;;;;5.93;2.33;;;18.30;30.00;;;;;;5029615;28;46458;-61
2022/07/07 06:39:08;;;;;;;8.30;2.73;;;18.50;29.80;;;;;;5030812;28;46162;-61
2022/07/07 06:41:36;;;;;;;7.63;2.47;;;18.80;30.40;;;;;;5030720;28;46362;-61
2022/07/07 06:44:03;;;;;;;6.83;2.10;;;19.00;29.10;;;;;;5030091;28;46330;-60
2022/07/07 06:46:28;;;;;;;8.73;2.90;;;19.20;28.70;;;;;;5032951;28;46341;-60
2022/07/07 06:48:54;;;;;;;9.20;2.53;;;19.40;28.40;;;;;;5028927;28;46441;-60
2022/07/07 06:51:19;;;;;;;11.90;2.70;;;19.60;28.10;;;;;;5031980;28;46509;-60
2022/07/07 06:53:45;;;;;;;7.30;2.47;;;19.90;27.60;;;;;;5031227;28;46608;-59
2022/07/07 06:56:10;;;;;;;7.53;2.07;;;20.00;27.30;;;;;;5028956;28;46927;-60
2022/07/07 06:58:36;;;;;;;8.13;2.90;;;19.90;27.20;;;;;;5030331;28;46463;-58
2022/07/07 07:01:01;;;;;;;9.47;2.87;;;19.90;27.10;;;;;;5031507;28;46502;-59
2022/07/07 07:03:27;;;;;;;4.90;2.10;;;19.80;27.10;;;;;;5031948;28;46505;-59
2022/07/07 07:05:53;;;;;;;12.83;2.13;;;19.80;27.00;;;;;;5033824;28;47024;-61
2022/07/07 07:08:19;;;;;;;6.20;2.63;;;19.80;27.80;;;;;;5033109;28;46402;-60
2022/07/07 07:10:44;;;;;;;3.90;2.20;;;19.70;26.80;;;;;;5032415;28;46424;-60
2022/07/07 07:13:10;;;;;;;6.87;2.00;;;19.70;27.80;;;;;;5029713;28;46399;-60
2022/07/07 07:15:35;;;;;;;9.13;3.00;;;19.80;26.70;;;;;;5032436;28;46926;-59
2022/07/07 07:18:01;;;;;;;6.73;2.33;;;20.00;26.60;;;;;;5030802;28;46433;-59
2022/07/07 07:20:27;;;;;;;7.03;2.50;;;20.20;26.20;;;;;;5028763;28;46380;-59
2022/07/07 07:22:52;;;;;;;4.87;2.20;;;20.30;26.10;;;;;;5033294;28;46501;-61
2022/07/07 07:25:19;;;;;;;9.33;2.47;;;20.50;26.00;;;;;;5032278;28;46153;-59
2022/07/07 07:27:44;;;;;;;6.40;2.90;;;20.70;25.90;;;;;;5032515;28;46410;-59
2022/07/07 07:30:12;;;;;;;9.10;2.90;;;20.80;25.80;;;;;;5021407;28;46332;-59
2022/07/07 07:32:37;;;;;;;15.33;2.40;;;20.80;25.50;;;;;;5031289;28;46003;-59
2022/07/07 07:35:03;;;;;;;4.70;2.07;;;21.00;25.20;;;;;;5026785;28;46704;-60
2022/07/07 07:37:29;;;;;;;8.17;2.33;;;21.10;24.80;;;;;;5031455;28;46438;-58
2022/07/07 07:39:54;;;;;;;9.97;2.60;;;21.30;24.50;;;;;;5031081;28;46494;-58
2022/07/07 07:42:20;;;;;;;10.27;2.17;;;21.30;24.40;;;;;;5028329;28;46558;-59
2022/07/07 07:47:30;;;;;;;4.20;1.80;;;20.90;24.10;;;;;;5029255;28;45891;-58
2022/07/07 07:49:56;;;;;;;5.07;1.60;;;20.70;24.30;;;;;;5030419;28;47010;-59
2022/07/07 07:52:21;;;;;;;6.07;2.17;;;20.40;24.40;;;;;;5030487;28;46645;-59
2022/07/07 07:54:47;;;;;;;6.10;2.10;;;20.30;24.90;;;;;;5034323;28;47024;-59
2022/07/07 07:57:13;;;;;;;3.70;1.70;;;20.70;24.70;;;;;;5033194;28;46480;-58
2022/07/07 07:59:38;;;;;;;3.67;2.00;;;21.30;23.30;;;;;;5033086;28;46518;-58
2022/07/07 08:02:04;;;;;;;4.10;1.90;;;22.10;23.10;;;;;;5032001;28;46233;-58
2022/07/07 08:04:30;;;;;;;5.60;2.17;;;23.10;21.40;;;;;;5031443;28;46422;-58
2022/07/07 08:06:55;;;;;;;8.80;2.23;;;23.40;19.90;;;;;;5026882;28;46534;-59
2022/07/07 08:09:21;;;;;;;6.70;1.60;;;23.90;18.90;;;;;;5032194;28;45786;-58
2022/07/07 08:11:46;;;;;;;4.77;1.93;;;23.90;18.30;;;;;;5030945;28;46293;-59
2022/07/07 08:14:12;;;;;;;18.87;2.23;;;23.90;18.20;;;;;;5030814;28;46981;-59
2022/07/07 08:16:38;;;;;;;4.20;1.50;;;23.60;18.30;;;;;;5034553;28;46381;-59
2022/07/07 08:19:03;;;;;;;4.27;1.60;;;23.50;18.20;;;;;;5029313;28;45926;-59
2022/07/07 08:21:29;;;;;;;7.90;2.30;;;23.60;18.20;;;;;;5030974;28;46475;-59
2022/07/07 08:23:55;;;;;;;3.97;1.63;;;23.30;18.50;;;;;;5028621;28;46818;-59
2022/07/07 08:26:21;;;;;;;4.20;1.30;;;23.10;18.50;;;;;;5032192;28;46441;-59
2022/07/07 08:28:46;;;;;;;5.83;1.47;;;22.90;18.80;;;;;;5029451;28;46303;-59
2022/07/07 08:31:12;;;;;;;3.60;1.40;;;22.80;18.50;;;;;;5031926;28;46746;-59
2022/07/07 08:33:38;;;;;;;4.90;1.60;;;22.70;18.00;;;;;;5035910;28;46443;-60
2022/07/07 08:36:04;;;;;;;5.93;2.10;;;22.40;17.80;;;;;;5030817;28;46279;-59
2022/07/07 08:38:30;;;;;;;3.93;1.53;;;22.10;17.90;;;;;;5034864;28;46444;-59
2022/07/07 08:40:55;;;;;;;7.13;1.67;;;21.80;18.50;;;;;;5033212;28;46326;-59
2022/07/07 08:43:21;;;;;;;6.50;1.63;;;21.70;18.80;;;;;;5033154;28;47274;-58
2022/07/07 08:45:48;;;;;;;5.43;1.47;;;21.50;18.90;;;;;;5033231;28;46442;-59
2022/07/07 08:48:13;;;;;;;3.23;1.60;;;21.30;18.80;;;;;;5032056;28;46417;-58
2022/07/07 08:50:40;;;;;;;5.23;1.97;;;21.30;19.00;;;;;;5033777;28;46318;-58
2022/07/07 08:53:12;;;;;;;9.20;1.83;;;21.30;18.80;;;;;;5030205;28;46564;-59
2022/07/07 08:55:41;;;;;;;3.40;1.40;;;21.20;18.90;;;;;;5035385;28;46488;-58
2022/07/07 08:58:09;;;;;;;4.20;1.57;;;21.20;18.80;;;;;;5028289;28;46005;-58
2022/07/07 09:00:35;;;;;;;8.20;2.10;;;20.90;19.10;;;;;;5030853;28;46352;-59
2022/07/07 09:03:03;;;;;;;6.77;1.60;;;20.90;19.60;;;;;;5027662;28;47423;-58
2022/07/07 09:05:37;;;;;;;7.10;2.13;;;20.80;20.20;;;;;;5030966;28;46466;-60
2022/07/07 09:08:16;;;;;;;8.13;1.53;;;21.00;21.00;;;;;;5036613;28;46442;-60
2022/07/07 09:10:42;;;;;;;5.17;1.80;;;21.20;21.40;;;;;;5031073;28;46686;-60
2022/07/07 09:13:22;;;;;;;2.73;1.53;;;21.20;21.40;;;;;;5033500;28;47272;-60
2022/07/07 09:15:49;;;;;;;3.40;1.40;;;21.40;21.40;;;;;;5031720;28;46462;-59
2022/07/07 09:18:35;;;;;;;8.90;1.90;;;21.50;21.20;;;;;;5032577;28;46439;-59
2022/07/07 09:21:02;;;;;;;4.83;1.60;;;21.60;21.20;;;;;;5033522;28;46580;-61
2022/07/07 09:23:30;;;;;;;5.53;1.80;;;21.60;21.10;;;;;;5032333;28;47121;-59
2022/07/07 09:25:56;;;;;;;4.37;1.80;;;21.60;21.20;;;;;;5033595;28;46699;-60
2022/07/07 09:28:21;;;;;;;5.47;1.63;;;21.70;21.10;;;;;;5036533;28;46548;-59
2022/07/07 09:30:48;;;;;;;8.87;1.60;;;21.60;21.10;;;;;;5030545;28;46385;-59
2022/07/07 09:33:15;;;;;;;2.90;1.70;;;21.40;21.00;;;;;;5033363;28;47300;-60
2022/07/07 09:38:31;;;;;;;2.57;1.37;;;21.10;21.40;;;;;;5031168;28;46328;-59
2022/07/07 09:41:05;;;;;;;4.07;1.77;;;21.00;21.80;;;;;;5032228;28;46412;-60
2022/07/07 09:43:44;;;;;;;7.30;1.60;;;21.10;21.70;;;;;;5031594;28;47083;-59
2022/07/07 09:46:13;;;;;;;6.83;1.93;;;21.10;22.00;;;;;;5031201;28;46502;-60
2022/07/07 09:49:06;;;;;;;5.50;1.60;;;21.00;22.30;;;;;;5029450;28;46541;-58
2022/07/07 09:51:32;;;;;;;11.93;1.87;;;20.90;22.50;;;;;;5033417;28;46486;-59
2022/07/07 09:54:04;;;;;;;3.90;1.60;;;20.90;22.70;;;;;;5029809;28;47347;-60
2022/07/07 09:56:33;;;;;;;6.10;1.93;;;20.90;22.70;;;;;;5033060;28;46446;-59
2022/07/07 09:59:01;;;;;;;4.03;1.47;;;21.00;22.60;;;;;;5029083;28;46244;-60
2022/07/07 10:01:29;;;;;;;4.50;1.70;;;21.10;22.60;;;;;;5029856;28;46534;-59
2022/07/07 10:03:58;;;;;;;4.90;1.60;;;21.00;22.50;;;;;;5030831;28;46477;-59
2022/07/07 10:06:28;;;;;;;8.23;2.00;;;21.10;22.40;;;;;;5031556;28;46416;-60
2022/07/07 10:09:14;;;;;;;4.57;1.60;;;21.20;22.10;;;;;;5030499;28;46592;-58
2022/07/07 10:11:49;;;;;;;7.40;2.33;;;21.50;21.80;;;;;;5031731;28;46415;-59
2022/07/07 10:14:23;;;;;;;6.13;2.47;;;21.80;21.50;;;;;;5028995;28;47243;-60
2022/07/07 10:16:51;;;;;;;3.90;1.70;;;21.90;22.30;;;;;;5030051;28;46411;-58
2022/07/07 10:19:19;;;;;;;6.23;1.97;;;21.90;21.10;;;;;;5028957;28;47380;-59
2022/07/07 10:21:46;;;;;;;6.43;1.80;;;21.80;21.10;;;;;;5033384;28;46346;-59
2022/07/07 10:24:14;;;;;;;4.50;1.57;;;21.70;21.10;;;;;;5031967;28;46462;-59
2022/07/07 10:27:01;;;;;;;8.93;2.27;;;21.70;21.00;;;;;;5035249;28;46354;-59
2022/07/07 10:29:42;;;;;;;3.90;2.00;;;21.70;21.00;;;;;;5034073;28;46387;-59
2022/07/07 10:32:09;;;;;;;13.53;2.07;;;22.00;20.70;;;;;;5036050;28;46390;-60
2022/07/07 10:34:37;;;;;;;12.30;2.40;;;22.10;20.50;;;;;;5027968;28;46387;-58
2022/07/07 10:37:04;;;;;;;5.63;1.97;;;21.80;20.70;;;;;;5030239;28;46252;-60
2022/07/07 10:39:36;;;;;;;7.80;2.30;;;21.80;20.60;;;;;;5033405;28;46071;-59
2022/07/07 10:42:17;;;;;;;9.17;1.80;;;21.70;20.80;;;;;;5027127;28;46395;-59
2022/07/07 10:44:49;;;;;;;9.60;2.03;;;21.90;20.80;;;;;;5031499;28;46050;-58
2022/07/07 10:47:17;;;;;;;5.37;1.97;;;22.10;20.50;;;;;;5024028;28;46530;-58
2022/07/07 10:49:54;;;;;;;7.90;1.80;;;22.00;20.40;;;;;;5032713;28;46424;-58
2022/07/07 10:52:23;;;;;;;5.57;1.77;;;21.90;20.90;;;;;;5032159;28;45820;-57
2022/07/07 10:55:00;;;;;;;4.93;1.97;;;21.70;22.30;;;;;;5029656;28;47192;-60
2022/07/07 10:57:27;;;;;;;6.33;2.30;;;21.60;23.30;;;;;;5033811;28;46225;-59
2022/07/07 11:00:00;;;;;;;5.90;1.93;;;21.60;23.60;;;;;;5034089;28;46162;-59
2022/07/07 11:02:35;;;;;;;4.63;1.80;;;21.50;23.50;;;;;;5031844;28;46215;-59
2022/07/07 11:05:15;;;;;;;12.37;2.00;;;21.60;23.60;;;;;;5033604;28;46495;-60
2022/07/07 11:07:56;;;;;;;5.13;2.00;;;21.50;23.50;;;;;;5032835;28;46362;-59
2022/07/07 11:10:44;;;;;;;4.53;2.40;;;21.60;23.60;;;;;;5031309;28;46604;-59
2022/07/07 11:13:21;;;;;;;5.00;2.37;;;21.80;23.70;;;;;;5032047;28;46399;-60
2022/07/07 11:15:49;;;;;;;3.93;1.63;;;21.90;23.60;;;;;;5030837;28;47269;-59
2022/07/07 11:18:16;;;;;;;7.70;2.43;;;22.00;23.50;;;;;;5031458;28;46266;-60
2022/07/07 11:20:57;;;;;;;6.67;1.97;;;22.10;23.20;;;;;;5030715;28;46446;-59
2022/07/07 11:23:25;;;;;;;6.07;2.40;;;22.10;23.10;;;;;;5030544;28;46268;-57
2022/07/07 11:25:58;;;;;;;4.83;2.00;;;22.00;22.90;;;;;;5031246;28;47258;-61
2022/07/07 11:28:26;;;;;;;3.30;1.73;;;21.80;23.10;;;;;;5029803;28;46449;-61
2022/07/07 11:31:01;;;;;;;6.27;2.47;;;21.60;23.20;;;;;;5035297;28;46777;-61
2022/07/07 11:33:26;;;;;;;3.90;2.00;;;21.20;23.30;;;;;;5028272;28;46359;-58
2022/07/07 11:35:52;;;;;;;8.23;2.23;;;21.00;23.10;;;;;;5032009;28;46510;-59
2022/07/07 11:38:17;;;;;;;5.17;1.93;;;20.90;23.10;;;;;;5027401;28;46442;-60
2022/07/07 11:40:43;;;;;;;6.20;2.30;;;20.90;24.30;;;;;;5028854;28;46364;-58
2022/07/07 11:43:24;;;;;;;5.27;2.27;;;21.00;23.20;;;;;;5031567;28;46382;-61
2022/07/07 11:45:49;;;;;;;4.40;2.23;;;21.10;23.40;;;;;;5033798;28;47318;-58
2022/07/07 11:48:15;;;;;;;15.50;2.50;;;21.00;23.40;;;;;;5033494;28;46461;-57
2022/07/07 11:50:41;;;;;;;13.37;2.57;;;20.80;23.70;;;;;;5036676;28;46481;-59
2022/07/07 11:53:06;;;;;;;8.50;2.20;;;20.70;24.10;;;;;;5029758;28;46585;-58
2022/07/07 11:55:32;;;;;;;5.90;2.13;;;20.70;24.30;;;;;;5028857;28;46193;-59
2022/07/07 11:58:06;;;;;;;6.23;2.13;;;20.90;24.20;;;;;;5034638;28;46352;-60
2022/07/07 12:00:34;;;;;;;5.90;2.17;;;21.00;23.90;;;;;;5028202;28;46494;-59
2022/07/07 12:03:02;;;;;;;7.30;1.77;;;21.20;23.80;;;;;;5029442;28;46644;-59
2022/07/07 12:05:38;;;;;;;6.60;2.53;;;21.40;23.50;;;;;;5032411;28;48533;-58
2022/07/07 12:08:08;;;;;;;6.33;2.30;;;21.80;23.70;;;;;;5032060;28;45811;-58
2022/07/07 12:10:39;;;;;;;6.23;2.40;;;22.10;23.10;;;;;;5030907;28;46156;-59
2022/07/07 12:13:06;;;;;;;3.70;2.13;;;22.20;22.70;;;;;;5030687;28;46413;-59
2022/07/07 12:15:36;;;;;;;5.20;2.00;;;22.30;22.70;;;;;;5032437;28;47140;-58
2022/07/07 12:18:03;;;;;;;5.30;2.43;;;22.20;22.70;;;;;;5033011;28;46358;-59
2022/07/07 12:20:30;;;;;;;6.57;2.33;;;22.20;23.80;;;;;;5031544;28;46396;-59
2022/07/07 12:22:58;;;;;;;7.67;2.63;;;22.40;22.70;;;;;;5033936;28;46345;-60
2022/07/07 12:25:29;;;;;;;13.80;2.07;;;22.60;22.50;;;;;;5034292;28;47253;-59
2022/07/07 12:27:59;;;;;;;5.87;2.37;;;22.60;22.20;;;;;;5032404;28;46384;-59
2022/07/07 12:30:32;;;;;;;4.60;1.93;;;22.60;22.40;;;;;;5031250;28;46350;-59
2022/07/07 12:32:58;;;;;;;9.43;2.53;;;22.60;22.40;;;;;;5033749;28;46471;-60
2022/07/07 12:35:39;;;;;;;4.53;2.23;;;22.40;22.00;;;;;;5032278;28;46454;-60
2022/07/07 12:38:08;;;;;;;8.03;2.67;;;21.90;22.10;;;;;;5032291;28;46331;-60
2022/07/07 12:40:36;;;;;;;4.50;2.33;;;21.60;23.40;;;;;;5033591;28;46461;-59
2022/07/07 12:43:12;;;;;;;6.77;2.77;;;21.40;23.40;;;;;;5028670;28;46371;-60
2022/07/07 12:45:38;;;;;;;5.67;2.63;;;21.00;25.00;;;;;;5031999;28;46347;-59
2022/07/07 12:48:15;;;;;;;10.13;2.83;;;20.70;26.20;;;;;;5032171;28;46378;-60
2022/07/07 12:50:42;;;;;;;7.20;2.90;;;20.20;29.10;;;;;;5035922;28;45851;-59
2022/07/07 12:53:08;;;;;;;6.53;2.63;;;20.00;29.90;;;;;;5031524;28;46568;-60